createdAt,value
2023-02-28T00:00:42.698Z,61.10
2023-02-28T00:05:54.628Z,60.90
2023-02-28T00:10:57.991Z,60.80
2023-02-28T00:16:04.865Z,60.80
2023-02-28T00:21:09.022Z,60.70
2023-02-28T00:26:12.760Z,60.60
2023-02-28T00:31:17.634Z,60.40
2023-02-28T00:36:21.014Z,60.50
2023-02-28T00:41:24.404Z,60.50
2023-02-28T00:46:31.725Z,60.30
2023-02-28T00:51:35.180Z,60.10
2023-02-28T00:56:38.580Z,60.10
2023-02-28T01:01:43.810Z,60.00
2023-02-28T01:06:47.904Z,60.00
2023-02-28T01:11:53.438Z,59.80
2023-02-28T01:16:58.204Z,59.70
2023-02-28T01:22:03.723Z,59.50
2023-02-28T01:27:07.135Z,59.30
2023-02-28T01:32:12.478Z,59.10
2023-02-28T01:37:15.901Z,59.30
2023-02-28T01:42:19.321Z,59.30
2023-02-28T01:47:25.157Z,59.40
2023-02-28T01:52:29.687Z,59.30
2023-02-28T01:57:38.779Z,59.30
2023-02-28T02:02:45.229Z,59.60
2023-02-28T02:07:53.032Z,59.60
2023-02-28T02:13:19.436Z,59.80
2023-02-28T02:18:32.404Z,60.00
2023-02-28T02:24:07.133Z,60.00
2023-02-28T02:29:58.310Z,60.10
2023-02-28T02:35:14.862Z,60.40
2023-02-28T02:40:22.424Z,60.40
2023-02-28T02:45:36.789Z,60.50
2023-02-28T02:50:45.839Z,60.60
2023-02-28T02:55:55.411Z,60.60
2023-02-28T03:01:02.125Z,60.60
2023-02-28T03:06:07.950Z,60.60
2023-02-28T03:11:17.067Z,60.60
2023-02-28T03:16:39.818Z,60.50
2023-02-28T03:21:50.505Z,60.40
2023-02-28T03:27:01.637Z,60.60
2023-02-28T03:32:12.433Z,60.70
2023-02-28T03:37:22.092Z,60.70
2023-02-28T03:42:29.714Z,60.80
2023-02-28T03:47:39.698Z,60.90
2023-02-28T03:52:50.517Z,60.90
2023-02-28T03:58:02.467Z,60.90
2023-02-28T04:03:06.660Z,61.00
2023-02-28T04:08:11.446Z,60.90
2023-02-28T04:13:14.885Z,60.80
2023-02-28T04:18:18.256Z,60.80
2023-02-28T04:23:23.058Z,60.90
2023-02-28T04:28:26.677Z,61.20
2023-02-28T04:33:30.722Z,61.00
2023-02-28T04:38:37.698Z,60.90
2023-02-28T04:43:41.161Z,60.70
2023-02-28T04:48:45.374Z,60.50
2023-02-28T04:53:50.781Z,60.40
2023-02-28T04:58:54.256Z,60.30
2023-02-28T05:03:59.963Z,60.40
2023-02-28T05:09:04.836Z,60.30
2023-02-28T05:14:12.478Z,60.40
2023-02-28T05:19:15.961Z,60.20
2023-02-28T05:24:23.757Z,60.50
2023-02-28T05:29:27.503Z,60.70
2023-02-28T05:34:30.917Z,60.70
2023-02-28T05:39:35.744Z,60.80
2023-02-28T05:44:39.206Z,61.20
2023-02-28T05:49:42.657Z,61.50
2023-02-28T05:54:48.736Z,61.40
2023-02-28T05:59:52.140Z,61.30
2023-02-28T06:04:55.578Z,61.20
2023-02-28T06:10:00.338Z,61.20
2023-02-28T06:15:04.714Z,61.00
2023-02-28T06:20:10.318Z,60.60
2023-02-28T06:25:15.091Z,60.00
2023-02-28T06:30:18.952Z,59.70
2023-02-28T06:35:22.678Z,59.90
2023-02-28T06:40:27.728Z,59.80
2023-02-28T06:45:31.516Z,59.30
2023-02-28T06:50:35.221Z,59.30
2023-02-28T06:55:41.953Z,59.10
2023-02-28T07:00:46.260Z,58.90
2023-02-28T07:05:49.754Z,58.20
2023-02-28T07:10:55.643Z,58.00
2023-02-28T07:16:02.016Z,58.10
2023-02-28T07:21:06.207Z,58.20
2023-02-28T07:26:15.787Z,58.00
2023-02-28T07:31:20.314Z,57.30
2023-02-28T07:36:23.724Z,57.50
2023-02-28T07:41:28.928Z,56.90
2023-02-28T07:46:36.665Z,56.70
2023-02-28T07:51:40.762Z,56.10
2023-02-28T07:56:45.577Z,56.10
2023-02-28T08:01:51.319Z,56.00
2023-02-28T08:06:55.065Z,55.80
2023-02-28T08:12:01.730Z,55.70
2023-02-28T08:17:06.457Z,55.60
2023-02-28T08:22:09.884Z,55.60
2023-02-28T08:27:29.741Z,55.50
2023-02-28T08:32:34.904Z,55.30
2023-02-28T08:37:38.579Z,55.00
2023-02-28T08:42:43.368Z,54.70
2023-02-28T08:47:46.744Z,54.50
2023-02-28T08:52:50.407Z,54.50
2023-02-28T08:57:55.945Z,54.50
2023-02-28T09:02:59.692Z,54.40
2023-02-28T09:08:04.426Z,53.80
2023-02-28T09:13:10.079Z,52.20
2023-02-28T09:18:14.196Z,52.90
2023-02-28T09:23:17.656Z,52.90
2023-02-28T09:28:23.802Z,51.80
2023-02-28T09:33:28.520Z,52.00
2023-02-28T09:38:32.226Z,52.40
2023-02-28T09:43:42.059Z,51.80
2023-02-28T09:48:49.891Z,51.90
2023-02-28T09:53:56.734Z,51.80
2023-02-28T09:59:13.452Z,51.50
2023-02-28T10:04:29.975Z,51.80
2023-02-28T10:09:35.798Z,51.20
2023-02-28T10:14:43.523Z,50.30
2023-02-28T10:19:54.992Z,51.20
2023-02-28T10:25:05.076Z,51.70
2023-02-28T10:30:15.256Z,51.70
2023-02-28T10:35:20.743Z,50.70
2023-02-28T10:40:32.548Z,51.00
2023-02-28T10:45:38.281Z,49.90
2023-02-28T10:50:52.457Z,50.70
2023-02-28T10:56:01.936Z,50.30
2023-02-28T11:01:07.335Z,50.60
2023-02-28T11:06:17.635Z,48.20
2023-02-28T11:11:22.846Z,47.80
2023-02-28T11:16:36.607Z,48.30
2023-02-28T11:21:41.752Z,48.80
2023-02-28T11:26:47.876Z,47.50
2023-02-28T11:32:14.311Z,47.30
2023-02-28T11:37:19.964Z,48.00
2023-02-28T11:42:39.413Z,48.90
2023-02-28T11:47:50.645Z,47.50
2023-02-28T11:52:55.950Z,48.50
2023-02-28T11:58:17.321Z,49.10
2023-02-28T12:03:31.903Z,47.70
2023-02-28T12:08:51.813Z,46.40
2023-02-28T12:14:18.212Z,46.30
2023-02-28T12:19:27.850Z,45.60
2023-02-28T12:24:55.356Z,46.60
2023-02-28T12:30:03.461Z,47.50
2023-02-28T12:35:15.655Z,47.60
2023-02-28T12:40:23.213Z,46.20
2023-02-28T12:45:32.307Z,46.00
2023-02-28T12:50:37.839Z,47.00
2023-02-28T12:55:48.553Z,45.90
2023-02-28T13:01:12.079Z,45.50
2023-02-28T13:06:30.998Z,46.20
2023-02-28T13:11:40.056Z,45.40
2023-02-28T13:16:59.671Z,45.30
2023-02-28T13:22:05.190Z,45.50
2023-02-28T13:27:35.509Z,45.70
2023-02-28T13:32:43.837Z,45.20
2023-02-28T13:37:52.771Z,44.40
2023-02-28T13:42:56.268Z,44.50
2023-02-28T13:48:05.528Z,42.90
2023-02-28T13:53:39.981Z,43.70
2023-02-28T13:58:55.599Z,44.20
2023-02-28T14:04:24.789Z,43.70
2023-02-28T14:09:33.236Z,44.20
2023-02-28T14:14:56.407Z,44.50
2023-02-28T14:20:01.221Z,44.20
2023-02-28T14:25:18.412Z,44.60
2023-02-28T14:30:52.751Z,43.90
2023-02-28T14:36:02.602Z,44.50
2023-02-28T14:41:18.328Z,44.40
2023-02-28T14:46:23.040Z,44.50
2023-02-28T14:51:27.560Z,43.90
2023-02-28T14:56:37.184Z,42.90
2023-02-28T15:01:40.659Z,43.80
2023-02-28T15:06:44.182Z,43.10
2023-02-28T15:11:51.801Z,43.70
2023-02-28T15:17:01.138Z,43.60
2023-02-28T15:22:09.613Z,43.60
2023-02-28T15:27:18.032Z,43.90
2023-02-28T15:32:28.328Z,43.40
2023-02-28T15:37:43.372Z,43.60
2023-02-28T15:43:06.027Z,44.30
2023-02-28T15:48:18.678Z,45.70
2023-02-28T15:53:25.214Z,44.80
2023-02-28T15:58:30.652Z,45.90
2023-02-28T16:03:47.001Z,44.90
2023-02-28T16:08:52.398Z,45.30
2023-02-28T16:13:57.545Z,45.50
2023-02-28T16:19:00.979Z,45.50
2023-02-28T16:24:04.484Z,45.50
2023-02-28T16:29:13.385Z,45.80
2023-02-28T16:34:16.816Z,46.10
2023-02-28T16:39:21.741Z,46.50
2023-02-28T16:44:30.403Z,46.80
2023-02-28T16:49:33.907Z,47.20
2023-02-28T16:54:37.495Z,47.40
2023-02-28T16:59:42.504Z,47.60
2023-02-28T17:04:46.920Z,47.80
2023-02-28T17:09:50.327Z,48.00
2023-02-28T17:14:55.389Z,48.20
2023-02-28T17:19:58.859Z,48.60
2023-02-28T17:25:02.232Z,48.90
2023-02-28T17:30:17.506Z,49.20
2023-02-28T17:35:21.370Z,50.60
2023-02-28T17:40:25.958Z,50.00
2023-02-28T17:45:30.740Z,50.40
2023-02-28T17:50:35.053Z,50.30
2023-02-28T17:55:38.925Z,50.70
2023-02-28T18:00:43.646Z,51.00
2023-02-28T18:05:47.097Z,51.20
2023-02-28T18:10:50.547Z,51.50
2023-02-28T18:15:55.403Z,51.70
2023-02-28T18:20:58.864Z,51.90
2023-02-28T18:26:02.351Z,51.90
2023-02-28T18:31:11.262Z,52.10
2023-02-28T18:36:14.801Z,52.30
2023-02-28T18:41:21.588Z,52.70
2023-02-28T18:46:26.462Z,52.90
2023-02-28T18:51:31.705Z,52.80
2023-02-28T18:56:35.153Z,52.80
2023-02-28T19:01:40.979Z,53.30
2023-02-28T19:06:44.434Z,53.50
2023-02-28T19:11:47.873Z,53.60
2023-02-28T19:16:53.032Z,53.70
2023-02-28T19:21:56.511Z,53.80
2023-02-28T19:26:59.960Z,54.00
2023-02-28T19:32:04.971Z,54.10
2023-02-28T19:37:08.631Z,54.50
2023-02-28T19:42:14.009Z,54.60
2023-02-28T19:47:18.938Z,54.70
2023-02-28T19:52:22.620Z,55.00
2023-02-28T19:57:26.313Z,55.40
2023-02-28T20:02:31.088Z,55.50
2023-02-28T20:07:34.862Z,55.60
2023-02-28T20:12:38.309Z,55.80
2023-02-28T20:17:43.234Z,56.10
2023-02-28T20:22:46.995Z,56.50
2023-02-28T20:27:50.375Z,56.50
2023-02-28T20:32:55.150Z,56.50
2023-02-28T20:37:58.874Z,56.80
2023-02-28T20:43:02.491Z,56.80
2023-02-28T20:48:07.372Z,57.00
2023-02-28T20:53:10.811Z,57.20
2023-02-28T20:58:14.208Z,57.30
2023-02-28T21:03:19.003Z,57.40
2023-02-28T21:08:22.411Z,57.40
2023-02-28T21:13:26.764Z,57.10
2023-02-28T21:18:31.535Z,57.50
2023-02-28T21:23:35.094Z,58.00
2023-02-28T21:28:44.387Z,58.20
2023-02-28T21:33:49.995Z,58.50
2023-02-28T21:38:57.605Z,58.60
2023-02-28T21:44:01.288Z,58.60
2023-02-28T21:49:06.154Z,58.50
2023-02-28T21:54:10.902Z,58.30
2023-02-28T21:59:14.415Z,58.40
2023-02-28T22:04:22.486Z,58.30
2023-02-28T22:09:26.415Z,58.20
2023-02-28T22:14:29.934Z,58.20
2023-02-28T22:19:36.091Z,58.00
2023-02-28T22:24:41.065Z,57.90
2023-02-28T22:29:44.474Z,57.90
2023-02-28T22:34:51.635Z,57.90
2023-02-28T22:39:55.011Z,58.20
2023-02-28T22:44:58.347Z,58.30
2023-02-28T22:50:03.097Z,58.50
2023-02-28T22:55:07.765Z,58.50
2023-02-28T23:00:15.486Z,58.70
2023-02-28T23:05:20.468Z,58.70
2023-02-28T23:10:23.913Z,58.80
2023-02-28T23:15:27.535Z,58.90
2023-02-28T23:20:32.321Z,59.20
2023-02-28T23:25:43.522Z,59.40
2023-02-28T23:30:46.905Z,59.60
2023-02-28T23:35:51.970Z,59.80
2023-02-28T23:40:55.708Z,60.00
2023-02-28T23:45:59.314Z,59.90
2023-02-28T23:51:08.620Z,59.70
2023-02-28T23:56:14.769Z,59.80
